createdAt,value
2018-12-21T00:01:26.737Z,6.40
2018-12-21T00:03:55.143Z,6.40
2018-12-21T00:06:23.520Z,6.40
2018-12-21T00:08:51.890Z,6.40
2018-12-21T00:11:20.250Z,6.40
2018-12-21T00:13:48.588Z,6.40
2018-12-21T00:16:16.952Z,6.40
2018-12-21T00:18:45.573Z,6.40
2018-12-21T00:21:21.650Z,6.40
2018-12-21T00:23:44.364Z,6.40
2018-12-21T00:26:12.756Z,6.50
2018-12-21T00:28:41.137Z,6.40
2018-12-21T00:31:14.745Z,6.40
2018-12-21T00:33:48.460Z,6.50
2018-12-21T00:36:22.075Z,6.40
2018-12-21T00:38:55.722Z,6.40
2018-12-21T00:41:23.350Z,6.40
2018-12-21T00:44:12.014Z,6.40
2018-12-21T00:46:46.218Z,6.50
2018-12-21T00:49:15.222Z,6.50
2018-12-21T00:51:43.618Z,6.50
2018-12-21T00:54:12.260Z,6.50
2018-12-21T00:56:42.032Z,6.50
2018-12-21T00:59:10.806Z,6.40
2018-12-21T01:01:40.021Z,8.00
2018-12-21T01:04:08.529Z,6.50
2018-12-21T01:06:38.163Z,6.50
2018-12-21T01:09:06.699Z,6.50
2018-12-21T01:11:35.159Z,6.50
2018-12-21T01:14:03.686Z,6.40
2018-12-21T01:16:32.385Z,6.40
2018-12-21T01:19:00.791Z,6.40
2018-12-21T01:21:29.775Z,6.40
2018-12-21T01:23:58.172Z,6.40
2018-12-21T01:26:26.763Z,6.50
2018-12-21T01:28:55.222Z,6.50
2018-12-21T01:31:23.581Z,6.50
2018-12-21T01:33:51.998Z,6.50
2018-12-21T01:36:20.442Z,6.50
2018-12-21T01:38:48.895Z,6.50
2018-12-21T01:41:17.352Z,6.40
2018-12-21T01:43:46.311Z,6.50
2018-12-21T01:46:14.736Z,6.50
2018-12-21T01:48:43.132Z,6.60
2018-12-21T01:51:11.518Z,6.50
2018-12-21T01:53:39.876Z,6.50
2018-12-21T01:56:08.252Z,6.60
2018-12-21T01:58:36.942Z,6.50
2018-12-21T02:01:05.380Z,6.50
2018-12-21T02:03:33.756Z,6.50
2018-12-21T02:06:02.136Z,6.50
2018-12-21T02:08:30.555Z,6.50
2018-12-21T02:10:58.995Z,6.50
2018-12-21T02:13:27.493Z,6.50
2018-12-21T02:15:55.925Z,6.50
2018-12-21T02:18:24.318Z,6.50
2018-12-21T02:20:52.707Z,6.40
2018-12-21T02:23:22.216Z,6.40
2018-12-21T02:25:50.612Z,6.30
2018-12-21T02:28:19.088Z,6.30
2018-12-21T02:30:47.469Z,6.30
2018-12-21T02:33:15.864Z,6.40
2018-12-21T02:35:44.254Z,6.30
2018-12-21T02:38:13.025Z,6.30
2018-12-21T02:40:41.432Z,6.30
2018-12-21T02:43:10.782Z,6.30
2018-12-21T02:45:39.197Z,6.30
2018-12-21T02:48:07.630Z,6.30
2018-12-21T02:50:36.027Z,6.30
2018-12-21T02:53:04.451Z,6.30
2018-12-21T02:55:32.847Z,6.30
2018-12-21T02:58:01.311Z,6.20
2018-12-21T03:00:29.940Z,6.30
2018-12-21T03:02:58.358Z,6.30
2018-12-21T03:05:26.848Z,6.30
2018-12-21T03:07:55.229Z,6.30
2018-12-21T03:10:23.603Z,6.30
2018-12-21T03:12:51.956Z,6.30
2018-12-21T03:15:20.328Z,6.40
2018-12-21T03:17:48.776Z,6.30
2018-12-21T03:20:17.137Z,6.40
2018-12-21T03:22:45.531Z,6.40
2018-12-21T03:25:13.882Z,6.50
2018-12-21T03:27:42.259Z,6.50
2018-12-21T03:30:10.695Z,6.50
2018-12-21T03:32:39.077Z,6.40
2018-12-21T03:35:07.541Z,6.40
2018-12-21T03:37:36.008Z,6.30
2018-12-21T03:40:04.511Z,6.30
2018-12-21T03:42:32.919Z,6.30
2018-12-21T03:45:01.351Z,6.30
2018-12-21T03:47:29.736Z,6.20
2018-12-21T03:49:58.166Z,6.20
2018-12-21T03:52:26.899Z,6.20
2018-12-21T03:54:55.343Z,6.30
2018-12-21T03:57:23.765Z,6.20
2018-12-21T03:59:52.137Z,6.20
2018-12-21T04:02:21.178Z,6.20
2018-12-21T04:04:49.621Z,6.10
2018-12-21T04:07:18.074Z,6.10
2018-12-21T04:09:46.512Z,6.10
2018-12-21T04:12:14.848Z,6.00
2018-12-21T04:14:43.210Z,6.10
2018-12-21T04:17:11.652Z,6.00
2018-12-21T04:19:40.010Z,6.10
2018-12-21T04:22:08.968Z,6.00
2018-12-21T04:24:37.398Z,6.00
2018-12-21T04:27:05.783Z,6.00
2018-12-21T04:29:34.501Z,6.10
2018-12-21T04:32:03.530Z,6.00
2018-12-21T04:34:31.958Z,5.90
2018-12-21T04:37:00.325Z,5.90
2018-12-21T04:39:28.759Z,5.80
2018-12-21T04:41:57.475Z,5.80
2018-12-21T04:44:25.869Z,5.90
2018-12-21T04:46:54.318Z,5.80
2018-12-21T04:49:22.707Z,5.80
2018-12-21T04:51:51.261Z,5.80
2018-12-21T04:54:19.939Z,5.80
2018-12-21T04:56:48.470Z,5.80
2018-12-21T04:59:16.854Z,5.70
2018-12-21T05:01:45.351Z,5.70
2018-12-21T05:04:19.764Z,5.60
2018-12-21T05:06:44.226Z,5.70
2018-12-21T05:09:12.612Z,5.60
2018-12-21T05:11:41.037Z,5.60
2018-12-21T05:14:10.429Z,5.60
2018-12-21T05:16:38.891Z,5.60
2018-12-21T05:19:08.350Z,5.60
2018-12-21T05:21:37.403Z,5.50
2018-12-21T05:24:05.819Z,5.60
2018-12-21T05:26:34.222Z,5.60
2018-12-21T05:29:02.719Z,5.40
2018-12-21T05:31:31.229Z,5.60
2018-12-21T05:33:59.692Z,5.60
2018-12-21T05:36:28.382Z,5.60
2018-12-21T05:38:56.723Z,5.60
2018-12-21T05:41:25.123Z,5.60
2018-12-21T05:43:53.482Z,5.70
2018-12-21T05:46:22.140Z,5.70
2018-12-21T05:48:50.690Z,5.70
2018-12-21T05:51:19.371Z,5.70
2018-12-21T05:53:47.791Z,5.70
2018-12-21T05:56:17.139Z,5.70
2018-12-21T05:58:45.531Z,5.70
2018-12-21T06:01:13.930Z,5.70
2018-12-21T06:03:42.334Z,5.80
2018-12-21T06:06:10.857Z,5.70
2018-12-21T06:08:39.262Z,5.70
2018-12-21T06:11:07.699Z,5.80
2018-12-21T06:13:36.082Z,5.80
2018-12-21T06:16:05.025Z,5.80
2018-12-21T06:18:33.680Z,5.80
2018-12-21T06:21:02.495Z,5.80
2018-12-21T06:23:31.409Z,5.80
2018-12-21T06:25:59.879Z,5.90
2018-12-21T06:28:28.273Z,5.80
2018-12-21T06:30:57.268Z,6.00
2018-12-21T06:33:26.981Z,6.00
2018-12-21T06:35:55.507Z,6.00
2018-12-21T06:38:23.947Z,6.00
2018-12-21T06:40:52.405Z,6.00
2018-12-21T06:43:22.365Z,6.10
2018-12-21T06:45:51.106Z,6.10
2018-12-21T06:48:19.534Z,6.10
2018-12-21T06:50:47.953Z,6.10
2018-12-21T06:53:18.130Z,6.10
2018-12-21T06:55:46.821Z,6.20
2018-12-21T06:58:15.255Z,6.20
2018-12-21T07:00:43.689Z,6.20
2018-12-21T07:03:17.060Z,6.20
2018-12-21T07:05:42.694Z,6.20
2018-12-21T07:08:11.110Z,6.20
2018-12-21T07:10:39.477Z,6.20
2018-12-21T07:13:07.937Z,6.20
2018-12-21T07:15:36.498Z,6.20
2018-12-21T07:18:05.244Z,6.20
2018-12-21T07:20:33.722Z,6.30
2018-12-21T07:23:02.574Z,6.30
2018-12-21T07:25:30.960Z,6.30
2018-12-21T07:27:59.423Z,6.30
2018-12-21T07:30:27.963Z,6.30
2018-12-21T07:32:56.694Z,6.40
2018-12-21T07:35:31.210Z,6.40
2018-12-21T07:37:59.652Z,6.40
2018-12-21T07:40:28.850Z,6.50
2018-12-21T07:42:57.224Z,6.40
2018-12-21T07:45:25.569Z,6.40
2018-12-21T07:47:53.972Z,6.60
2018-12-21T07:50:22.361Z,6.50
2018-12-21T07:52:50.774Z,6.50
2018-12-21T07:55:19.296Z,6.50
2018-12-21T07:57:47.648Z,6.50
2018-12-21T08:00:16.017Z,6.50
2018-12-21T08:02:44.500Z,6.50
2018-12-21T08:05:12.903Z,6.50
2018-12-21T08:07:41.495Z,6.50
2018-12-21T08:10:15.908Z,6.50
2018-12-21T08:12:44.438Z,6.50
2018-12-21T08:15:12.902Z,6.60
2018-12-21T08:17:41.438Z,6.60
2018-12-21T08:20:10.259Z,6.60
2018-12-21T08:22:38.710Z,6.60
2018-12-21T08:25:07.534Z,6.60
2018-12-21T08:27:36.068Z,6.60
2018-12-21T08:30:05.190Z,6.60
2018-12-21T08:32:33.646Z,6.70
2018-12-21T08:35:02.298Z,6.60
2018-12-21T08:37:30.697Z,6.60
2018-12-21T08:39:59.141Z,6.60
2018-12-21T08:42:27.560Z,6.70
2018-12-21T08:44:55.977Z,6.70
2018-12-21T08:47:25.455Z,6.60
2018-12-21T08:49:54.055Z,6.70
2018-12-21T08:52:25.372Z,6.70
2018-12-21T08:54:53.766Z,6.80
2018-12-21T08:57:22.190Z,6.70
2018-12-21T08:59:50.570Z,6.70
2018-12-21T09:02:20.941Z,6.70
2018-12-21T09:04:49.556Z,6.80
2018-12-21T09:07:18.088Z,6.80
2018-12-21T09:09:46.736Z,6.70
2018-12-21T09:12:15.400Z,7.00
2018-12-21T09:14:43.902Z,7.30
2018-12-21T09:17:12.426Z,6.90
2018-12-21T09:19:40.837Z,6.90
2018-12-21T09:22:09.279Z,6.90
2018-12-21T09:24:37.706Z,6.90
2018-12-21T09:27:06.153Z,6.80
2018-12-21T09:29:34.636Z,7.00
2018-12-21T09:32:05.231Z,7.00
2018-12-21T09:34:33.470Z,7.10
2018-12-21T09:37:01.922Z,6.80
2018-12-21T09:39:30.269Z,7.00
2018-12-21T09:41:58.808Z,7.10
2018-12-21T09:44:27.676Z,7.10
2018-12-21T09:46:56.311Z,7.20
2018-12-21T09:49:24.756Z,7.40
2018-12-21T09:51:54.327Z,7.20
2018-12-21T09:54:22.821Z,7.20
2018-12-21T09:56:51.427Z,7.30
2018-12-21T09:59:22.265Z,7.30
2018-12-21T10:01:50.673Z,7.20
2018-12-21T10:04:19.140Z,7.30
2018-12-21T10:06:47.555Z,7.30
2018-12-21T10:09:15.982Z,7.30
2018-12-21T10:11:44.439Z,7.30
2018-12-21T10:14:12.816Z,7.30
2018-12-21T10:16:41.273Z,7.40
2018-12-21T10:19:09.729Z,7.30
2018-12-21T10:21:38.144Z,7.50
2018-12-21T10:24:06.947Z,7.50
2018-12-21T10:26:36.248Z,7.40
2018-12-21T10:29:04.637Z,7.50
2018-12-21T10:31:33.037Z,7.40
2018-12-21T10:34:01.589Z,7.40
2018-12-21T10:36:30.103Z,7.50
2018-12-21T10:38:58.486Z,7.50
2018-12-21T10:41:26.968Z,7.50
2018-12-21T10:43:55.399Z,7.40
2018-12-21T10:46:23.801Z,7.60
2018-12-21T10:48:52.254Z,7.60
2018-12-21T10:51:20.686Z,7.50
2018-12-21T10:53:49.215Z,8.40
2018-12-21T10:56:17.660Z,7.70
2018-12-21T10:58:46.091Z,7.70
2018-12-21T11:01:14.525Z,7.70
2018-12-21T11:03:42.967Z,7.70
2018-12-21T11:06:11.387Z,7.80
2018-12-21T11:08:39.943Z,7.90
2018-12-21T11:11:08.361Z,7.90
2018-12-21T11:13:36.818Z,7.90
2018-12-21T11:16:05.258Z,7.90
2018-12-21T11:18:33.763Z,7.90
2018-12-21T11:21:02.290Z,8.00
2018-12-21T11:23:30.795Z,8.00
2018-12-21T11:26:00.579Z,8.10
2018-12-21T11:28:29.500Z,8.10
2018-12-21T11:30:58.008Z,8.20
2018-12-21T11:33:26.432Z,8.30
2018-12-21T11:35:54.854Z,8.20
2018-12-21T11:38:23.329Z,8.30
2018-12-21T11:40:51.823Z,8.30
2018-12-21T11:43:20.852Z,8.30
2018-12-21T11:45:49.305Z,8.30
2018-12-21T11:48:17.777Z,8.30
2018-12-21T11:50:46.246Z,8.40
2018-12-21T11:53:14.749Z,8.50
2018-12-21T11:55:43.337Z,8.50
2018-12-21T11:58:11.698Z,8.50
2018-12-21T12:00:40.185Z,8.50
2018-12-21T12:03:08.680Z,8.60
2018-12-21T12:05:38.567Z,8.60
2018-12-21T12:08:12.818Z,8.50
2018-12-21T12:10:42.434Z,8.60
2018-12-21T12:13:10.911Z,8.60
2018-12-21T12:15:39.376Z,8.70
2018-12-21T12:18:07.798Z,8.70
2018-12-21T12:20:36.178Z,8.80
2018-12-21T12:23:04.554Z,8.80
2018-12-21T12:25:33.113Z,8.90
2018-12-21T12:28:01.547Z,8.90
2018-12-21T12:30:29.952Z,8.90
2018-12-21T12:32:58.387Z,8.90
2018-12-21T12:35:26.789Z,8.90
2018-12-21T12:37:55.854Z,9.10
2018-12-21T12:40:24.281Z,9.10
2018-12-21T12:42:52.905Z,9.20
2018-12-21T12:45:21.675Z,9.20
2018-12-21T12:47:50.186Z,9.30
2018-12-21T12:50:18.662Z,9.40
2018-12-21T12:52:47.142Z,11.30
2018-12-21T12:55:15.617Z,9.40
2018-12-21T12:57:44.117Z,9.50
2018-12-21T13:00:12.979Z,9.50
2018-12-21T13:02:42.427Z,9.60
2018-12-21T13:05:10.932Z,9.60
2018-12-21T13:07:39.356Z,9.70
2018-12-21T13:10:09.691Z,9.70
2018-12-21T13:12:38.087Z,9.70
2018-12-21T13:15:09.545Z,9.70
2018-12-21T13:17:38.792Z,9.80
2018-12-21T13:20:08.827Z,9.90
2018-12-21T13:22:37.603Z,10.00
2018-12-21T13:25:11.489Z,10.10
2018-12-21T13:27:38.394Z,10.20
2018-12-21T13:30:15.930Z,10.20
2018-12-21T13:32:44.509Z,10.20
2018-12-21T13:35:13.291Z,10.20
2018-12-21T13:37:44.177Z,10.20
2018-12-21T13:40:13.139Z,10.20
2018-12-21T13:42:41.749Z,10.30
2018-12-21T13:45:11.173Z,10.30
2018-12-21T13:47:39.571Z,10.40
2018-12-21T13:50:11.475Z,10.50
2018-12-21T13:52:40.106Z,10.70
2018-12-21T13:55:08.603Z,10.60
2018-12-21T13:57:38.515Z,10.60
2018-12-21T14:00:09.321Z,10.50
2018-12-21T14:02:38.651Z,10.40
2018-12-21T14:05:07.930Z,10.30
2018-12-21T14:10:15.993Z,10.20
2018-12-21T14:12:46.334Z,10.20
2018-12-21T14:15:14.883Z,10.20
2018-12-21T14:17:43.409Z,10.30
2018-12-21T14:20:12.496Z,10.40
2018-12-21T14:22:41.088Z,10.40
2018-12-21T14:25:09.806Z,10.50
2018-12-21T14:27:39.172Z,10.60
2018-12-21T14:30:09.377Z,10.60
2018-12-21T14:32:38.271Z,10.60
2018-12-21T14:35:07.668Z,10.70
2018-12-21T14:37:36.842Z,10.80
2018-12-21T14:40:05.938Z,10.80
2018-12-21T14:42:34.568Z,10.80
2018-12-21T14:45:03.527Z,10.80
2018-12-21T14:47:31.964Z,10.90
2018-12-21T14:50:00.440Z,10.90
2018-12-21T14:52:29.006Z,11.00
2018-12-21T14:54:57.488Z,11.00
2018-12-21T14:57:26.034Z,11.00
2018-12-21T14:59:54.462Z,11.00
2018-12-21T15:02:22.842Z,11.00
2018-12-21T15:04:51.315Z,11.10
2018-12-21T15:07:19.742Z,11.00
2018-12-21T15:09:48.149Z,11.10
2018-12-21T15:12:16.532Z,11.00
2018-12-21T15:14:44.962Z,11.20
2018-12-21T15:17:13.397Z,11.10
2018-12-21T15:19:43.170Z,11.10
2018-12-21T15:22:11.769Z,11.10
2018-12-21T15:24:40.236Z,11.10
2018-12-21T15:27:08.772Z,11.10
2018-12-21T15:29:37.232Z,11.10
2018-12-21T15:32:05.695Z,11.10
2018-12-21T15:34:34.107Z,11.10
2018-12-21T15:37:02.672Z,10.90
2018-12-21T15:39:31.520Z,11.00
2018-12-21T15:42:03.211Z,11.00
2018-12-21T15:44:31.610Z,11.20
2018-12-21T15:47:08.771Z,11.00
2018-12-21T15:49:30.453Z,11.00
2018-12-21T15:51:59.098Z,11.10
2018-12-21T15:54:27.862Z,11.10
2018-12-21T15:56:56.319Z,11.00
2018-12-21T15:59:24.767Z,11.00
2018-12-21T16:01:53.165Z,11.10
2018-12-21T16:04:21.621Z,11.10
2018-12-21T16:06:50.174Z,11.00
2018-12-21T16:09:18.557Z,11.00
2018-12-21T16:11:47.256Z,11.10
2018-12-21T16:14:15.715Z,11.10
2018-12-21T16:16:44.203Z,11.10
2018-12-21T16:19:12.912Z,11.10
2018-12-21T16:21:42.582Z,11.10
2018-12-21T16:24:11.748Z,11.10
2018-12-21T16:26:40.187Z,11.20
2018-12-21T16:29:08.645Z,11.20
2018-12-21T16:31:37.467Z,11.20
2018-12-21T16:34:05.945Z,11.10
2018-12-21T16:36:34.506Z,11.30
2018-12-21T16:39:03.500Z,11.00
2018-12-21T16:41:31.940Z,11.20
2018-12-21T16:44:00.960Z,11.10
2018-12-21T16:46:29.410Z,11.10
2018-12-21T16:48:57.866Z,11.20
2018-12-21T16:51:26.310Z,11.10
2018-12-21T16:53:55.055Z,11.10
2018-12-21T16:56:23.727Z,11.10
2018-12-21T16:58:52.605Z,11.10
2018-12-21T17:01:21.740Z,10.90
2018-12-21T17:03:50.220Z,11.00
2018-12-21T17:06:19.756Z,11.00
2018-12-21T17:08:48.214Z,11.00
2018-12-21T17:11:16.779Z,11.00
2018-12-21T17:13:45.444Z,11.00
2018-12-21T17:16:13.886Z,11.00
2018-12-21T17:18:42.453Z,11.00
2018-12-21T17:21:10.828Z,11.00
2018-12-21T17:23:39.258Z,11.00
2018-12-21T17:26:07.757Z,11.00
2018-12-21T17:28:36.184Z,11.00
2018-12-21T17:31:04.624Z,11.00
2018-12-21T17:33:33.027Z,11.10
2018-12-21T17:36:01.454Z,11.20
2018-12-21T17:38:29.849Z,11.00
2018-12-21T17:40:58.310Z,11.00
2018-12-21T17:43:28.361Z,11.00
2018-12-21T17:45:56.997Z,11.10
2018-12-21T17:48:25.393Z,11.10
2018-12-21T17:50:54.483Z,11.10
2018-12-21T17:53:22.876Z,11.00
2018-12-21T17:55:51.450Z,11.00
2018-12-21T17:58:20.869Z,10.90
2018-12-21T18:00:49.566Z,11.00
2018-12-21T18:03:25.396Z,11.00
2018-12-21T18:05:54.153Z,11.00
2018-12-21T18:08:22.645Z,11.00
2018-12-21T18:10:51.032Z,11.10
2018-12-21T18:13:19.904Z,11.10
2018-12-21T18:15:48.329Z,11.00
2018-12-21T18:18:24.998Z,11.00
2018-12-21T18:20:47.268Z,11.10
2018-12-21T18:23:15.939Z,11.10
2018-12-21T18:25:45.110Z,11.10
2018-12-21T18:28:17.712Z,11.10
2018-12-21T18:30:49.240Z,11.10
2018-12-21T18:33:20.628Z,11.00
2018-12-21T18:35:49.156Z,11.10
2018-12-21T18:38:23.902Z,11.30
2018-12-21T18:40:52.383Z,11.10
2018-12-21T18:43:21.176Z,11.10
2018-12-21T18:45:50.020Z,11.10
2018-12-21T18:48:19.292Z,11.20
2018-12-21T18:50:47.848Z,11.20
2018-12-21T18:56:02.717Z,11.20
2018-12-21T18:58:31.519Z,11.20
2018-12-21T19:01:00.168Z,11.10
2018-12-21T19:03:29.006Z,11.20
2018-12-21T19:05:58.515Z,11.30
2018-12-21T19:08:27.222Z,11.20
2018-12-21T19:10:55.921Z,11.20
2018-12-21T19:13:24.493Z,11.20
2018-12-21T19:15:53.075Z,11.20
2018-12-21T19:18:26.339Z,11.20
2018-12-21T19:20:54.801Z,11.20
2018-12-21T19:23:23.238Z,11.10
2018-12-21T19:25:51.709Z,11.20
2018-12-21T19:28:20.134Z,11.20
2018-12-21T19:30:48.538Z,11.20
2018-12-21T19:33:16.930Z,11.10
2018-12-21T19:35:45.375Z,11.10
2018-12-21T19:38:23.748Z,11.10
2018-12-21T19:40:54.182Z,11.00
2018-12-21T19:43:28.166Z,11.00
2018-12-21T19:45:54.464Z,10.90
2018-12-21T19:48:23.344Z,11.00
2018-12-21T19:50:52.485Z,11.00
2018-12-21T19:53:21.373Z,10.90
2018-12-21T19:56:15.754Z,10.90
2018-12-21T19:58:44.489Z,10.90
2018-12-21T20:01:13.234Z,10.90
2018-12-21T20:03:42.413Z,11.00
2018-12-21T20:06:11.033Z,10.90
2018-12-21T20:08:39.650Z,10.90
2018-12-21T20:11:08.468Z,10.90
2018-12-21T20:13:36.982Z,10.80
2018-12-21T20:16:05.489Z,10.80
2018-12-21T20:18:37.540Z,10.80
2018-12-21T20:21:06.249Z,10.80
2018-12-21T20:23:34.671Z,10.70
2018-12-21T20:26:03.111Z,10.80
2018-12-21T20:28:31.654Z,10.80
2018-12-21T20:31:00.175Z,10.80
2018-12-21T20:33:28.590Z,10.80
2018-12-21T20:35:59.607Z,10.90
2018-12-21T20:38:28.258Z,10.80
2018-12-21T20:40:58.341Z,10.80
2018-12-21T20:43:26.729Z,10.80
2018-12-21T20:45:55.381Z,10.80
2018-12-21T20:48:23.928Z,10.90
2018-12-21T20:50:52.906Z,10.90
2018-12-21T20:53:21.993Z,10.90
2018-12-21T20:55:50.722Z,10.70
2018-12-21T20:58:24.650Z,10.80
2018-12-21T21:00:53.475Z,10.90
2018-12-21T21:03:22.101Z,10.80
2018-12-21T21:05:50.935Z,10.70
2018-12-21T21:08:19.674Z,10.70
2018-12-21T21:10:48.287Z,10.80
2018-12-21T21:13:19.333Z,10.70
2018-12-21T21:15:47.896Z,10.70
2018-12-21T21:18:16.502Z,10.70
2018-12-21T21:20:45.176Z,10.60
2018-12-21T21:23:13.818Z,10.60
2018-12-21T21:25:42.350Z,10.60
2018-12-21T21:28:10.821Z,10.60
2018-12-21T21:30:40.180Z,10.60
2018-12-21T21:33:08.642Z,10.60
2018-12-21T21:35:37.108Z,10.60
2018-12-21T21:38:05.683Z,10.60
2018-12-21T21:40:35.008Z,10.60
2018-12-21T21:43:04.178Z,10.50
2018-12-21T21:45:33.364Z,10.60
2018-12-21T21:48:03.241Z,10.60
2018-12-21T21:50:31.795Z,10.40
2018-12-21T21:53:00.263Z,10.50
2018-12-21T21:55:28.804Z,10.50
2018-12-21T21:57:59.791Z,10.40
2018-12-21T22:00:28.983Z,10.40
2018-12-21T22:02:58.183Z,10.40
2018-12-21T22:05:28.306Z,10.40
2018-12-21T22:07:57.778Z,10.40
2018-12-21T22:10:26.499Z,10.40
2018-12-21T22:12:55.116Z,10.40
2018-12-21T22:15:23.639Z,10.30
2018-12-21T22:17:52.761Z,10.20
2018-12-21T22:20:21.570Z,10.00
2018-12-21T22:22:50.149Z,10.10
2018-12-21T22:25:18.570Z,10.20
2018-12-21T22:27:48.543Z,10.20
2018-12-21T22:30:16.904Z,10.00
2018-12-21T22:32:45.341Z,10.10
2018-12-21T22:35:13.764Z,10.10
2018-12-21T22:37:45.054Z,10.10
2018-12-21T22:40:13.684Z,10.10
2018-12-21T22:42:42.422Z,10.00
2018-12-21T22:45:10.875Z,10.10
2018-12-21T22:47:39.714Z,10.20
2018-12-21T22:50:09.641Z,10.10
2018-12-21T22:52:38.450Z,10.20
2018-12-21T22:55:08.929Z,10.10
2018-12-21T22:57:37.686Z,10.10
2018-12-21T23:00:12.473Z,10.00
2018-12-21T23:02:41.182Z,10.00
2018-12-21T23:05:09.751Z,10.00
2018-12-21T23:07:38.171Z,10.00
2018-12-21T23:10:08.303Z,9.90
2018-12-21T23:12:37.226Z,9.90
2018-12-21T23:15:06.796Z,9.90
2018-12-21T23:17:35.326Z,9.90
2018-12-21T23:20:03.802Z,9.90
2018-12-21T23:22:32.246Z,9.90
2018-12-21T23:25:00.651Z,9.90
2018-12-21T23:27:29.101Z,9.90
2018-12-21T23:29:58.675Z,9.90
2018-12-21T23:32:27.247Z,9.90
2018-12-21T23:34:55.659Z,9.70
2018-12-21T23:37:24.055Z,9.90
2018-12-21T23:39:52.467Z,9.90
2018-12-21T23:42:21.441Z,9.90
2018-12-21T23:44:53.053Z,9.80
2018-12-21T23:47:22.025Z,9.80
2018-12-21T23:49:50.424Z,9.80
2018-12-21T23:52:20.686Z,9.80
2018-12-21T23:54:49.239Z,9.80
2018-12-21T23:57:18.654Z,9.80
2018-12-21T23:59:48.004Z,9.90
